Time;durP1;ratioP1;P1;durP2;ratioP2;P2;SDS_P1;SDS_P2;PMS_P1;PMS_P2;Temp;Humidity;BMP_temperature;BMP_pressure;BME280_temperature;BME280_humidity;BME280_pressure;Samples;Min_cycle;Max_cycle;Signal;HPM_P1;HPM_P2
2022/01/14 00:02:08;;;;;;;39.58;18.60;;;;;;;;;;4904418;29;20080;-82
2022/01/14 00:04:35;;;;;;;39.08;18.92;;;;;;;;;;4921148;29;20376;-81
2022/01/14 00:07:01;;;;;;;40.20;19.67;;;;;;;;;;4922895;29;20052;-80
2022/01/14 00:09:27;;;;;;;39.13;19.88;;;;;;;;;;4935743;29;20337;-81
2022/01/14 00:11:57;;;;;;;39.85;20.48;;;;;;;;;;4911217;29;20047;-81
2022/01/14 00:14:38;;;;;;;40.85;19.92;;;;;;;;;;4906318;29;20142;-82
2022/01/14 00:17:05;;;;;;;38.28;18.60;;;;;;;;;;4894837;29;20079;-81
2022/01/14 00:19:31;;;;;;;39.33;18.33;;;;;;;;;;4920193;29;20052;-80
2022/01/14 00:22:01;;;;;;;34.50;17.45;;;;;;;;;;4934198;29;20086;-81
2022/01/14 00:31:37;;;;;;;38.05;18.00;;;;;;;;;;4903658;29;20572;-82
2022/01/14 00:32:57;;;;;;;32.50;17.08;;;;;;;;;;4933306;29;20055;-81
2022/01/14 00:35:24;;;;;;;33.85;16.02;;;;;;;;;;4920293;29;20040;-83
2022/01/14 00:37:50;;;;;;;41.55;15.80;;;;;;;;;;4908174;29;20063;-81
2022/01/14 00:40:16;;;;;;;35.88;16.95;;;;;;;;;;4922722;29;20115;-81
2022/01/14 00:42:42;;;;;;;36.83;17.08;;;;;;;;;;4903093;29;20047;-82
2022/01/14 00:45:10;;;;;;;45.17;19.45;;;;;;;;;;4909620;28;20093;-82
2022/01/14 00:47:37;;;;;;;47.13;19.02;;;;;;;;;;4906087;29;20075;-80
2022/01/14 00:50:13;;;;;;;44.70;18.92;;;;;;;;;;4908414;29;20067;-81
2022/01/14 00:52:40;;;;;;;42.00;19.88;;;;;;;;;;4923622;29;20040;-81
2022/01/14 00:55:07;;;;;;;38.80;18.73;;;;;;;;;;4920462;29;20398;-81
2022/01/14 01:00:18;;;;;;;35.53;20.23;;;;;;;;;;4933069;29;20043;-79
2022/01/14 01:02:44;;;;;;;42.28;20.02;;;;;;;;;;4908723;29;20052;-79
2022/01/14 01:05:12;;;;;;;45.15;19.98;;;;;;;;;;4923720;29;20047;-80
2022/01/14 01:07:40;;;;;;;37.85;18.92;;;;;;;;;;4924341;29;20051;-79
2022/01/14 01:10:06;;;;;;;41.42;19.77;;;;;;;;;;4906319;29;20044;-81
2022/01/14 01:12:47;;;;;;;40.53;19.45;;;;;;;;;;4922131;29;20131;-79
2022/01/14 01:15:15;;;;;;;39.28;19.58;;;;;;;;;;4921141;29;20039;-81
2022/01/14 01:17:41;;;;;;;36.38;19.63;;;;;;;;;;4934251;29;20292;-81
2022/01/14 01:20:18;;;;;;;35.03;19.52;;;;;;;;;;4906616;29;20130;-79
2022/01/14 01:22:45;;;;;;;39.08;20.77;;;;;;;;;;4919779;29;20047;-79
2022/01/14 01:25:13;;;;;;;44.80;20.35;;;;;;;;;;4923094;28;20077;-79
2022/01/14 01:27:41;;;;;;;41.50;20.70;;;;;;;;;;4906462;29;20043;-80
2022/01/14 01:33:02;;;;;;;41.20;20.67;;;;;;;;;;4895790;29;20063;-79
2022/01/14 01:35:29;;;;;;;47.97;21.13;;;;;;;;;;4924298;29;20035;-78
2022/01/14 01:37:55;;;;;;;41.13;20.23;;;;;;;;;;4907655;29;20043;-78
2022/01/14 01:40:22;;;;;;;48.03;20.48;;;;;;;;;;4920329;29;20546;-78
2022/01/14 01:42:48;;;;;;;43.72;21.33;;;;;;;;;;4904425;29;20047;-78
2022/01/14 01:45:21;;;;;;;41.67;20.25;;;;;;;;;;4913532;29;20043;-78
2022/01/14 01:47:50;;;;;;;47.08;21.75;;;;;;;;;;4922547;29;20406;-79
2022/01/14 01:50:18;;;;;;;41.50;20.65;;;;;;;;;;4906158;29;20118;-81
2022/01/14 01:52:45;;;;;;;36.78;21.02;;;;;;;;;;4920315;29;20484;-80
2022/01/14 01:55:11;;;;;;;54.22;22.75;;;;;;;;;;4904773;29;20488;-79
2022/01/14 01:57:37;;;;;;;42.28;21.55;;;;;;;;;;4908337;29;20487;-80
2022/01/14 02:00:07;;;;;;;48.47;21.77;;;;;;;;;;4924082;29;20046;-78
2022/01/14 02:02:36;;;;;;;42.22;21.55;;;;;;;;;;4898071;29;20067;-79
2022/01/14 02:05:03;;;;;;;39.30;21.63;;;;;;;;;;4920504;29;20058;-78
2022/01/14 02:07:29;;;;;;;50.55;22.63;;;;;;;;;;4907085;29;20570;-81
2022/01/14 02:09:55;;;;;;;48.58;22.58;;;;;;;;;;4906297;29;20043;-80
2022/01/14 02:12:21;;;;;;;46.45;22.65;;;;;;;;;;4922138;29;20039;-79
2022/01/14 02:15:09;;;;;;;51.78;23.58;;;;;;;;;;4920346;29;20492;-79
2022/01/14 02:22:57;;;;;;;44.40;21.70;;;;;;;;;;4929511;29;20051;-79
2022/01/14 02:25:30;;;;;;;41.13;22.10;;;;;;;;;;4912427;29;20600;-79
2022/01/14 02:27:57;;;;;;;45.40;20.95;;;;;;;;;;4914002;29;20051;-78
2022/01/14 02:30:24;;;;;;;43.75;22.27;;;;;;;;;;4912857;29;20050;-78
2022/01/14 02:32:50;;;;;;;43.63;22.33;;;;;;;;;;4927723;29;20186;-79
2022/01/14 02:35:16;;;;;;;39.67;21.63;;;;;;;;;;4911583;29;20058;-80
2022/01/14 02:37:43;;;;;;;39.92;22.25;;;;;;;;;;4913122;29;20479;-79
2022/01/14 02:40:09;;;;;;;45.67;23.13;;;;;;;;;;4919792;29;20102;-79
2022/01/14 02:42:36;;;;;;;40.75;23.48;;;;;;;;;;4910655;29;20035;-81
2022/01/14 02:45:06;;;;;;;51.17;24.15;;;;;;;;;;4893030;29;20043;-80
2022/01/14 02:47:32;;;;;;;47.88;22.17;;;;;;;;;;4904467;29;20055;-79
2022/01/14 02:49:58;;;;;;;43.95;22.95;;;;;;;;;;4933531;29;20106;-79
2022/01/14 02:52:42;;;;;;;39.80;21.40;;;;;;;;;;4906530;29;20393;-79
2022/01/14 02:55:18;;;;;;;42.53;22.77;;;;;;;;;;4918897;29;20056;-79
2022/01/14 02:57:48;;;;;;;52.58;24.80;;;;;;;;;;4919850;29;20051;-79
2022/01/14 03:00:15;;;;;;;42.13;23.90;;;;;;;;;;4913120;29;20048;-82
2022/01/14 03:02:42;;;;;;;46.85;24.00;;;;;;;;;;4919660;29;20051;-79
2022/01/14 03:05:08;;;;;;;46.63;24.52;;;;;;;;;;4924291;29;20415;-82
2022/01/14 03:07:36;;;;;;;43.08;24.00;;;;;;;;;;4919569;29;20048;-81
2022/01/14 03:10:02;;;;;;;53.10;25.17;;;;;;;;;;4920319;29;20054;-79
2022/01/14 03:12:28;;;;;;;50.75;25.30;;;;;;;;;;4934096;29;20054;-79
2022/01/14 03:14:54;;;;;;;50.03;25.02;;;;;;;;;;4906348;29;20051;-79
2022/01/14 03:17:20;;;;;;;49.42;25.40;;;;;;;;;;4933979;29;20090;-79
2022/01/14 03:19:47;;;;;;;44.60;22.45;;;;;;;;;;4921348;29;20472;-79
2022/01/14 03:22:31;;;;;;;53.15;24.55;;;;;;;;;;4905452;29;20135;-80
2022/01/14 03:27:24;;;;;;;56.72;24.50;;;;;;;;;;4924391;29;20052;-79
2022/01/14 03:29:50;;;;;;;51.53;22.98;;;;;;;;;;4907707;29;20051;-79
2022/01/14 03:32:16;;;;;;;51.55;22.75;;;;;;;;;;4905173;29;20054;-79
2022/01/14 03:34:42;;;;;;;47.55;24.08;;;;;;;;;;4904958;29;20055;-79
2022/01/14 03:37:09;;;;;;;53.70;21.90;;;;;;;;;;4906685;29;20123;-83
2022/01/14 03:39:35;;;;;;;44.00;23.33;;;;;;;;;;4893645;29;20046;-81
2022/01/14 03:42:01;;;;;;;53.40;23.25;;;;;;;;;;4919311;29;20131;-79
2022/01/14 03:44:27;;;;;;;47.03;22.10;;;;;;;;;;4917319;29;20539;-79
2022/01/14 03:46:53;;;;;;;43.25;23.15;;;;;;;;;;4903494;29;20252;-78
2022/01/14 03:49:19;;;;;;;43.78;22.65;;;;;;;;;;4915850;29;20148;-79
2022/01/14 03:51:45;;;;;;;53.53;22.90;;;;;;;;;;4924180;29;20095;-79
2022/01/14 03:54:11;;;;;;;46.58;23.40;;;;;;;;;;4904925;29;20055;-79
2022/01/14 03:56:37;;;;;;;54.70;23.85;;;;;;;;;;4908659;29;20146;-80
2022/01/14 03:59:04;;;;;;;48.10;24.08;;;;;;;;;;4938354;29;20110;-79
2022/01/14 04:01:30;;;;;;;50.20;22.90;;;;;;;;;;4910447;29;20043;-79
2022/01/14 04:03:56;;;;;;;48.22;22.83;;;;;;;;;;4902252;29;20098;-79
2022/01/14 04:06:22;;;;;;;43.15;22.85;;;;;;;;;;4899618;29;20475;-80
2022/01/14 04:08:48;;;;;;;44.70;24.25;;;;;;;;;;4905984;29;20047;-80
2022/01/14 04:11:15;;;;;;;44.92;22.23;;;;;;;;;;4905570;29;20055;-80
2022/01/14 04:13:48;;;;;;;53.17;24.88;;;;;;;;;;4908962;29;20119;-79
2022/01/14 04:16:16;;;;;;;45.92;22.35;;;;;;;;;;4924515;29;20079;-79
2022/01/14 04:18:42;;;;;;;44.83;22.83;;;;;;;;;;4909262;29;20110;-79
2022/01/14 04:21:08;;;;;;;52.40;22.70;;;;;;;;;;4893463;29;20107;-79
2022/01/14 04:23:34;;;;;;;43.80;22.48;;;;;;;;;;4894004;29;20216;-79
2022/01/14 04:26:00;;;;;;;51.30;23.02;;;;;;;;;;4917993;29;20082;-80
2022/01/14 04:28:29;;;;;;;49.78;24.38;;;;;;;;;;4924089;29;20083;-79
2022/01/14 04:30:56;;;;;;;45.15;22.75;;;;;;;;;;4906934;29;20479;-79
2022/01/14 04:33:27;;;;;;;48.03;23.20;;;;;;;;;;4927689;29;20142;-78
2022/01/14 04:35:58;;;;;;;54.97;23.90;;;;;;;;;;4923635;29;20083;-79
2022/01/14 04:38:24;;;;;;;42.72;22.38;;;;;;;;;;4922999;29;20094;-79
2022/01/14 04:40:51;;;;;;;44.33;23.25;;;;;;;;;;4910460;29;20055;-78
2022/01/14 04:43:19;;;;;;;47.10;24.45;;;;;;;;;;4909656;29;20518;-78
2022/01/14 04:48:20;;;;;;;52.28;23.92;;;;;;;;;;4905926;29;20066;-79
2022/01/14 04:50:46;;;;;;;48.40;23.95;;;;;;;;;;4897293;29;20101;-81
2022/01/14 04:53:13;;;;;;;47.33;23.77;;;;;;;;;;4894663;29;20487;-81
2022/01/14 04:55:40;;;;;;;57.55;25.15;;;;;;;;;;4906740;29;20051;-82
2022/01/14 04:58:06;;;;;;;49.65;25.50;;;;;;;;;;4922004;29;20036;-80
2022/01/14 05:00:32;;;;;;;47.80;23.73;;;;;;;;;;4892747;29;20050;-80
2022/01/14 05:02:59;;;;;;;49.88;25.65;;;;;;;;;;4921637;29;20050;-80
2022/01/14 05:05:28;;;;;;;47.20;26.48;;;;;;;;;;4907700;29;20055;-80
2022/01/14 05:07:54;;;;;;;53.60;25.40;;;;;;;;;;4905328;29;20043;-80
2022/01/14 05:12:56;;;;;;;42.47;24.73;;;;;;;;;;4922051;29;20054;-80
2022/01/14 05:15:22;;;;;;;47.53;24.58;;;;;;;;;;4923537;29;20055;-83
2022/01/14 05:17:49;;;;;;;54.63;25.30;;;;;;;;;;4925430;29;20085;-81
2022/01/14 05:20:16;;;;;;;46.40;23.67;;;;;;;;;;4905879;29;20122;-80
2022/01/14 05:22:42;;;;;;;46.22;23.70;;;;;;;;;;4918789;29;20052;-80
2022/01/14 05:25:09;;;;;;;51.13;25.60;;;;;;;;;;4905154;29;20039;-80
2022/01/14 05:27:36;;;;;;;45.78;24.58;;;;;;;;;;4908916;29;20447;-79
2022/01/14 05:30:03;;;;;;;45.03;24.30;;;;;;;;;;4904089;29;20138;-80
2022/01/14 05:32:29;;;;;;;48.88;24.58;;;;;;;;;;4927518;29;20035;-79
2022/01/14 05:34:55;;;;;;;48.17;23.70;;;;;;;;;;4913409;29;20067;-80
2022/01/14 05:37:21;;;;;;;40.88;24.45;;;;;;;;;;4910025;29;20058;-84
2022/01/14 05:39:47;;;;;;;49.55;23.98;;;;;;;;;;4896884;29;20051;-78
2022/01/14 05:42:13;;;;;;;51.30;23.50;;;;;;;;;;4920017;29;20399;-82
2022/01/14 05:44:39;;;;;;;42.22;22.67;;;;;;;;;;4921977;29;20123;-77
2022/01/14 05:47:06;;;;;;;44.55;23.50;;;;;;;;;;4905890;29;20043;-79
2022/01/14 05:49:32;;;;;;;46.45;24.85;;;;;;;;;;4905194;29;20059;-79
2022/01/14 05:51:58;;;;;;;43.40;23.48;;;;;;;;;;4909381;29;20039;-80
2022/01/14 05:54:24;;;;;;;47.17;23.58;;;;;;;;;;4891642;29;20094;-79
2022/01/14 05:56:51;;;;;;;43.88;23.77;;;;;;;;;;4894896;29;20086;-81
2022/01/14 05:59:17;;;;;;;50.95;24.65;;;;;;;;;;4908588;29;20039;-78
2022/01/14 06:01:44;;;;;;;46.92;23.83;;;;;;;;;;4920907;29;20120;-79
2022/01/14 06:04:10;;;;;;;44.10;22.98;;;;;;;;;;4913934;29;20314;-79
2022/01/14 06:06:36;;;;;;;44.25;23.55;;;;;;;;;;4894060;29;20214;-79
2022/01/14 06:09:03;;;;;;;43.75;22.60;;;;;;;;;;4901618;29;20051;-79
2022/01/14 06:11:29;;;;;;;50.75;23.92;;;;;;;;;;4926252;28;20103;-79
2022/01/14 06:13:55;;;;;;;44.30;23.20;;;;;;;;;;4906318;29;20058;-78
2022/01/14 06:16:21;;;;;;;48.33;22.73;;;;;;;;;;4904852;29;20078;-77
2022/01/14 06:18:47;;;;;;;39.40;21.48;;;;;;;;;;4890701;29;20057;-82
2022/01/14 06:21:15;;;;;;;39.10;22.85;;;;;;;;;;4932082;29;20043;-80
2022/01/14 06:23:41;;;;;;;44.30;21.02;;;;;;;;;;4916646;29;20047;-81
2022/01/14 06:26:07;;;;;;;38.03;21.50;;;;;;;;;;4906796;29;20186;-80
2022/01/14 06:28:33;;;;;;;47.47;21.13;;;;;;;;;;4908814;29;20057;-80
2022/01/14 06:30:59;;;;;;;40.05;21.42;;;;;;;;;;4918728;29;20047;-79
2022/01/14 06:33:25;;;;;;;39.90;22.08;;;;;;;;;;4904729;29;20138;-79
2022/01/14 06:35:51;;;;;;;40.72;20.45;;;;;;;;;;4905183;29;20074;-80
2022/01/14 06:38:18;;;;;;;40.60;20.95;;;;;;;;;;4904350;29;20098;-79
2022/01/14 06:40:46;;;;;;;44.03;21.20;;;;;;;;;;4918261;29;20131;-80
2022/01/14 06:43:12;;;;;;;37.35;20.88;;;;;;;;;;4913709;29;20051;-81
2022/01/14 06:45:39;;;;;;;43.75;20.30;;;;;;;;;;4904661;29;20373;-81
2022/01/14 06:48:05;;;;;;;46.42;21.35;;;;;;;;;;4909322;29;20051;-80
2022/01/14 06:50:31;;;;;;;38.85;20.67;;;;;;;;;;4906309;29;20071;-79
2022/01/14 06:52:57;;;;;;;45.65;20.98;;;;;;;;;;4904785;29;20428;-80
2022/01/14 06:55:23;;;;;;;42.50;20.50;;;;;;;;;;4908701;29;20079;-78
2022/01/14 06:57:49;;;;;;;44.70;19.70;;;;;;;;;;4907093;29;20090;-79
2022/01/14 07:00:17;;;;;;;63.53;38.65;;;;;;;;;;4932538;29;20039;-79
2022/01/14 07:02:43;;;;;;;45.50;20.27;;;;;;;;;;4914701;29;20047;-80
2022/01/14 07:05:10;;;;;;;39.53;21.33;;;;;;;;;;4914678;29;20440;-80
2022/01/14 07:07:36;;;;;;;37.22;19.67;;;;;;;;;;4916607;29;20051;-80
2022/01/14 07:10:04;;;;;;;42.28;21.00;;;;;;;;;;4904260;29;20130;-80
2022/01/14 07:12:34;;;;;;;39.65;19.48;;;;;;;;;;4897355;29;20074;-79
2022/01/14 07:15:01;;;;;;;38.92;18.50;;;;;;;;;;4933417;29;20487;-80
2022/01/14 07:17:28;;;;;;;34.33;17.88;;;;;;;;;;4918024;29;20055;-79
2022/01/14 07:19:57;;;;;;;40.72;18.50;;;;;;;;;;4919401;29;20062;-79
2022/01/14 07:22:23;;;;;;;43.95;18.35;;;;;;;;;;4915195;29;20448;-81
2022/01/14 07:24:50;;;;;;;37.20;18.83;;;;;;;;;;4917696;29;20118;-79
2022/01/14 07:27:16;;;;;;;30.80;17.35;;;;;;;;;;4914984;29;20044;-79
2022/01/14 07:29:42;;;;;;;38.60;16.83;;;;;;;;;;4921219;29;20047;-81
2022/01/14 07:32:08;;;;;;;40.88;17.50;;;;;;;;;;4936167;29;20130;-81
2022/01/14 07:34:35;;;;;;;43.58;17.38;;;;;;;;;;4918178;29;20371;-79
2022/01/14 07:37:01;;;;;;;36.22;17.58;;;;;;;;;;4919529;29;20055;-80
2022/01/14 07:39:27;;;;;;;45.60;17.73;;;;;;;;;;4899919;29;20480;-79
2022/01/14 07:41:53;;;;;;;35.13;15.55;;;;;;;;;;4908387;29;20483;-79
2022/01/14 07:44:20;;;;;;;36.28;16.63;;;;;;;;;;4933566;29;20047;-79
2022/01/14 07:46:47;;;;;;;46.42;17.80;;;;;;;;;;4921149;29;20058;-79
2022/01/14 07:49:13;;;;;;;40.55;16.23;;;;;;;;;;4937915;29;20118;-80
2022/01/14 07:51:39;;;;;;;40.08;15.80;;;;;;;;;;4921405;29;20047;-80
2022/01/14 07:54:06;;;;;;;38.45;17.17;;;;;;;;;;4867463;29;1102620;-80
2022/01/14 07:56:33;;;;;;;38.80;17.17;;;;;;;;;;4939350;29;20411;-79
2022/01/14 07:58:59;;;;;;;28.17;16.00;;;;;;;;;;4923088;29;20142;-80
2022/01/14 08:01:25;;;;;;;45.67;16.67;;;;;;;;;;4920859;29;20043;-79
2022/01/14 08:03:51;;;;;;;43.30;16.77;;;;;;;;;;4937646;29;20051;-80
2022/01/14 08:06:17;;;;;;;39.15;15.93;;;;;;;;;;4900480;29;20141;-80
2022/01/14 08:08:44;;;;;;;36.70;16.27;;;;;;;;;;4904417;29;20088;-81
2022/01/14 08:11:10;;;;;;;31.40;15.07;;;;;;;;;;4921226;29;20035;-80
2022/01/14 08:13:36;;;;;;;44.50;16.02;;;;;;;;;;4910198;29;20052;-79
2022/01/14 08:16:02;;;;;;;34.13;14.88;;;;;;;;;;4904029;29;20054;-82
2022/01/14 08:18:28;;;;;;;31.05;15.65;;;;;;;;;;4927583;29;20044;-79
2022/01/14 08:20:56;;;;;;;31.42;15.13;;;;;;;;;;4912305;29;20044;-79
2022/01/14 08:23:22;;;;;;;34.70;15.35;;;;;;;;;;4889517;29;20578;-80
2022/01/14 08:25:53;;;;;;;35.50;14.43;;;;;;;;;;4920816;29;20055;-79
2022/01/14 08:28:19;;;;;;;31.10;13.85;;;;;;;;;;4920527;29;20467;-79
2022/01/14 08:30:45;;;;;;;40.60;14.05;;;;;;;;;;4905533;29;20047;-79
2022/01/14 08:33:12;;;;;;;31.30;13.02;;;;;;;;;;4937709;29;20054;-80
2022/01/14 08:35:39;;;;;;;32.45;13.43;;;;;;;;;;4918231;29;20051;-80
2022/01/14 08:38:06;;;;;;;26.83;14.10;;;;;;;;;;4913165;29;20043;-80
2022/01/14 08:40:32;;;;;;;26.30;12.88;;;;;;;;;;4922427;29;20059;-78
2022/01/14 08:42:58;;;;;;;32.97;13.70;;;;;;;;;;4922122;29;20126;-79
2022/01/14 08:45:25;;;;;;;25.77;12.88;;;;;;;;;;4909578;29;20473;-79
2022/01/14 08:47:52;;;;;;;34.50;14.07;;;;;;;;;;4937492;29;20468;-80
2022/01/14 08:50:22;;;;;;;27.58;12.98;;;;;;;;;;4902758;29;20369;-80
2022/01/14 08:52:48;;;;;;;33.53;11.60;;;;;;;;;;4921368;29;20085;-80
2022/01/14 08:55:16;;;;;;;28.23;11.60;;;;;;;;;;4914473;29;20062;-84
2022/01/14 08:57:43;;;;;;;24.58;10.40;;;;;;;;;;4908870;29;20403;-80
2022/01/14 09:00:09;;;;;;;25.40;9.95;;;;;;;;;;4928296;29;20399;-81
2022/01/14 09:02:35;;;;;;;29.08;11.73;;;;;;;;;;4914374;29;20509;-83
2022/01/14 09:05:02;;;;;;;24.92;9.57;;;;;;;;;;4905836;29;20058;-80
2022/01/14 09:07:29;;;;;;;26.42;9.07;;;;;;;;;;4921434;29;20051;-81
2022/01/14 09:09:55;;;;;;;24.55;8.75;;;;;;;;;;4931277;29;20058;-81
2022/01/14 09:12:21;;;;;;;23.10;8.63;;;;;;;;;;4921862;29;20043;-81
2022/01/14 09:14:47;;;;;;;27.85;9.13;;;;;;;;;;4918352;29;20103;-80
2022/01/14 09:17:13;;;;;;;17.70;8.13;;;;;;;;;;4903421;29;20047;-81
2022/01/14 09:19:40;;;;;;;21.20;7.82;;;;;;;;;;4921010;29;20047;-81
2022/01/14 09:22:07;;;;;;;20.33;7.45;;;;;;;;;;4905841;29;20047;-80
2022/01/14 09:24:34;;;;;;;21.55;7.03;;;;;;;;;;4935447;28;20161;-81
2022/01/14 09:27:00;;;;;;;21.65;7.38;;;;;;;;;;4915861;29;20056;-80
2022/01/14 09:29:26;;;;;;;15.18;6.97;;;;;;;;;;4917338;29;20043;-81
2022/01/14 09:31:52;;;;;;;18.80;6.57;;;;;;;;;;4920586;29;20072;-81
2022/01/14 09:34:18;;;;;;;22.23;6.35;;;;;;;;;;4921014;29;20039;-81
2022/01/14 09:36:45;;;;;;;18.50;6.55;;;;;;;;;;4935463;29;20038;-81
2022/01/14 09:39:12;;;;;;;19.55;6.78;;;;;;;;;;4896355;29;20130;-88
2022/01/14 09:41:38;;;;;;;15.85;5.45;;;;;;;;;;4935802;29;20085;-81
2022/01/14 09:44:05;;;;;;;18.45;5.40;;;;;;;;;;4921171;29;20103;-82
2022/01/14 09:46:31;;;;;;;16.75;5.50;;;;;;;;;;4933256;29;20083;-81
2022/01/14 09:48:57;;;;;;;18.20;5.47;;;;;;;;;;4906453;29;20051;-80
2022/01/14 09:51:24;;;;;;;18.60;5.47;;;;;;;;;;4911359;29;20043;-80
2022/01/14 09:53:50;;;;;;;20.45;6.05;;;;;;;;;;4935963;29;20071;-78
2022/01/14 09:56:17;;;;;;;23.77;5.30;;;;;;;;;;4931799;28;20059;-79
2022/01/14 09:58:47;;;;;;;19.50;5.05;;;;;;;;;;4917011;29;20047;-82
2022/01/14 10:01:15;;;;;;;20.13;5.07;;;;;;;;;;4904057;29;20039;-85
2022/01/14 10:04:01;;;;;;;12.27;4.60;;;;;;;;;;4918740;29;20058;-82
2022/01/14 10:06:42;;;;;;;17.73;4.38;;;;;;;;;;4917546;29;20098;-83
2022/01/14 10:09:11;;;;;;;18.25;5.25;;;;;;;;;;4911248;29;20055;-82
2022/01/14 10:11:39;;;;;;;24.17;4.57;;;;;;;;;;4907884;29;20073;-81
2022/01/14 10:14:06;;;;;;;21.50;4.28;;;;;;;;;;4921248;29;20043;-82
2022/01/14 10:16:33;;;;;;;18.30;4.80;;;;;;;;;;4920741;29;20055;-82
2022/01/14 10:18:59;;;;;;;19.13;4.50;;;;;;;;;;4933199;29;20046;-79
2022/01/14 10:21:32;;;;;;;14.07;3.50;;;;;;;;;;4901381;29;20035;-82
2022/01/14 10:23:59;;;;;;;19.05;4.00;;;;;;;;;;4915197;29;20072;-83
2022/01/14 10:26:30;;;;;;;15.30;4.18;;;;;;;;;;4917938;29;20491;-82
2022/01/14 10:29:08;;;;;;;14.88;3.65;;;;;;;;;;4921088;29;20055;-81
2022/01/14 10:31:34;;;;;;;19.27;4.50;;;;;;;;;;4919232;29;20440;-81
2022/01/14 10:34:11;;;;;;;21.10;4.00;;;;;;;;;;4920668;29;20051;-82
2022/01/14 10:36:37;;;;;;;16.15;4.93;;;;;;;;;;4903085;29;20879;-81
2022/01/14 10:39:17;;;;;;;20.20;4.10;;;;;;;;;;4927181;29;20077;-82
2022/01/14 10:41:43;;;;;;;14.23;3.92;;;;;;;;;;4918729;29;20460;-83
2022/01/14 10:44:29;;;;;;;15.73;4.38;;;;;;;;;;4920376;29;20086;-83
2022/01/14 10:47:18;;;;;;;17.95;4.93;;;;;;;;;;4932059;29;20468;-81
2022/01/14 10:49:46;;;;;;;15.23;4.70;;;;;;;;;;4921277;29;20039;-84
2022/01/14 10:52:17;;;;;;;22.80;4.93;;;;;;;;;;4936281;29;20094;-82
2022/01/14 10:54:45;;;;;;;18.40;4.38;;;;;;;;;;4925505;29;20055;-82
2022/01/14 10:57:12;;;;;;;17.85;4.03;;;;;;;;;;4919535;29;20055;-82
2022/01/14 10:59:38;;;;;;;22.42;5.07;;;;;;;;;;4921638;29;20074;-81
2022/01/14 11:02:25;;;;;;;22.27;5.43;;;;;;;;;;4904933;29;20514;-80
2022/01/14 11:05:20;;;;;;;13.45;3.85;;;;;;;;;;4937332;29;20086;-82
2022/01/14 11:07:48;;;;;;;17.90;4.97;;;;;;;;;;4904260;29;20153;-82
2022/01/14 11:10:28;;;;;;;26.98;4.97;;;;;;;;;;4918322;29;20047;-82
2022/01/14 11:12:56;;;;;;;18.50;4.55;;;;;;;;;;4921642;29;20483;-81
2022/01/14 11:15:23;;;;;;;21.25;4.55;;;;;;;;;;4934950;29;20141;-83
2022/01/14 11:17:52;;;;;;;16.25;4.82;;;;;;;;;;4923091;29;20055;-81
2022/01/14 11:20:24;;;;;;;21.45;5.28;;;;;;;;;;4918159;29;20057;-81
2022/01/14 11:25:37;;;;;;;22.58;5.40;;;;;;;;;;4915588;29;20119;-81
2022/01/14 11:28:04;;;;;;;18.98;5.72;;;;;;;;;;4927008;29;20048;-84
2022/01/14 11:30:38;;;;;;;18.23;5.35;;;;;;;;;;4922982;29;20074;-82
2022/01/14 11:33:04;;;;;;;;;;;;;;;;;;4922747;29;20550;-82
2022/01/14 11:35:31;;;;;;;20.60;5.00;;;;;;;;;;4912086;29;20017;-81
2022/01/14 11:37:57;;;;;;;20.10;5.30;;;;;;;;;;4938620;29;20506;-81
2022/01/14 11:40:23;;;;;;;19.20;5.00;;;;;;;;;;4918762;29;20403;-82
2022/01/14 11:43:01;;;;;;;24.10;5.30;;;;;;;;;;4923832;29;20043;-76
2022/01/14 11:45:40;;;;;;;20.73;5.57;;;;;;;;;;4921849;29;20047;-81
2022/01/14 11:48:07;;;;;;;24.25;7.20;;;;;;;;;;4938109;29;20043;-78
2022/01/14 11:50:33;;;;;;;16.45;5.82;;;;;;;;;;4934580;29;20074;-80
2022/01/14 11:52:59;;;;;;;24.38;5.45;;;;;;;;;;4914444;29;20078;-79
2022/01/14 11:55:29;;;;;;;24.48;5.43;;;;;;;;;;4920829;29;20058;-81
2022/01/14 11:58:00;;;;;;;23.05;5.57;;;;;;;;;;4922891;29;20051;-78
2022/01/14 12:00:37;;;;;;;18.92;5.30;;;;;;;;;;4938004;29;20102;-81
2022/01/14 12:03:16;;;;;;;22.55;6.15;;;;;;;;;;4921593;29;20495;-77
2022/01/14 12:05:55;;;;;;;19.77;5.03;;;;;;;;;;4932627;29;20048;-78
2022/01/14 12:08:23;;;;;;;24.90;6.55;;;;;;;;;;4920605;29;20079;-79
2022/01/14 12:10:51;;;;;;;27.13;5.78;;;;;;;;;;4919965;29;20134;-78
2022/01/14 12:13:37;;;;;;;26.65;5.47;;;;;;;;;;4913759;29;20079;-78
2022/01/14 12:16:08;;;;;;;24.35;5.68;;;;;;;;;;4959671;28;20142;-78
2022/01/14 12:18:46;;;;;;;32.83;8.48;;;;;;;;;;4922258;29;20051;-79
2022/01/14 12:21:13;;;;;;;19.70;5.38;;;;;;;;;;4922707;29;20047;-80
2022/01/14 12:23:39;;;;;;;27.08;5.55;;;;;;;;;;4902575;29;20043;-77
2022/01/14 12:26:16;;;;;;;26.50;5.80;;;;;;;;;;4922192;29;20054;-78
2022/01/14 12:28:42;;;;;;;20.02;5.50;;;;;;;;;;4938558;28;20170;-77
2022/01/14 12:31:09;;;;;;;23.33;5.53;;;;;;;;;;4922097;29;20071;-78
2022/01/14 12:33:38;;;;;;;21.85;5.53;;;;;;;;;;4921638;29;20058;-75
2022/01/14 12:36:14;;;;;;;28.88;5.78;;;;;;;;;;4922450;29;20055;-78
2022/01/14 12:38:41;;;;;;;22.05;6.57;;;;;;;;;;4925568;29;20047;-79
2022/01/14 12:41:24;;;;;;;25.25;5.65;;;;;;;;;;4933469;29;20055;-81
2022/01/14 12:43:51;;;;;;;22.23;6.22;;;;;;;;;;4922040;29;20158;-80
2022/01/14 12:46:40;;;;;;;22.08;6.32;;;;;;;;;;4937885;29;20087;-79
2022/01/14 12:49:11;;;;;;;25.05;6.60;;;;;;;;;;4907833;29;20044;-80
2022/01/14 12:51:37;;;;;;;29.05;6.13;;;;;;;;;;4921160;29;20047;-82
2022/01/14 12:54:05;;;;;;;26.02;6.75;;;;;;;;;;4909646;29;20055;-83
2022/01/14 12:56:33;;;;;;;27.10;6.00;;;;;;;;;;4911906;29;20050;-87
2022/01/14 12:59:02;;;;;;;27.42;6.60;;;;;;;;;;4917381;29;20483;-85
2022/01/14 13:01:28;;;;;;;28.70;6.72;;;;;;;;;;4915307;29;20048;-85
2022/01/14 13:03:55;;;;;;;31.42;7.07;;;;;;;;;;4919321;29;20102;-85
2022/01/14 13:06:21;;;;;;;30.73;7.32;;;;;;;;;;4937786;29;20047;-86
2022/01/14 13:08:54;;;;;;;35.08;7.90;;;;;;;;;;4926341;29;20048;-85
2022/01/14 13:11:21;;;;;;;26.58;6.38;;;;;;;;;;4928194;29;20399;-84
2022/01/14 13:13:57;;;;;;;31.50;7.30;;;;;;;;;;4893222;29;20108;-83
2022/01/14 13:16:23;;;;;;;28.92;6.95;;;;;;;;;;4935278;29;20240;-84
2022/01/14 13:18:49;;;;;;;31.25;8.23;;;;;;;;;;4904722;29;20065;-83
2022/01/14 13:21:15;;;;;;;28.30;6.57;;;;;;;;;;4905099;29;20497;-84
2022/01/14 13:23:45;;;;;;;32.08;8.15;;;;;;;;;;4898880;29;20058;-84
2022/01/14 13:26:12;;;;;;;36.28;7.40;;;;;;;;;;4928768;29;20134;-83
2022/01/14 13:28:38;;;;;;;30.35;6.78;;;;;;;;;;4918355;29;20153;-84
2022/01/14 13:31:10;;;;;;;31.80;7.22;;;;;;;;;;4900315;29;20044;-79
2022/01/14 13:33:37;;;;;;;32.75;7.70;;;;;;;;;;4900680;29;20416;-82
2022/01/14 13:36:03;;;;;;;34.05;8.23;;;;;;;;;;4905709;29;20514;-80
2022/01/14 13:38:29;;;;;;;37.25;8.32;;;;;;;;;;4914269;29;20487;-81
2022/01/14 13:40:57;;;;;;;36.60;6.88;;;;;;;;;;4917665;29;20439;-80
2022/01/14 13:43:26;;;;;;;37.67;9.30;;;;;;;;;;4936548;29;20089;-79
2022/01/14 13:46:02;;;;;;;45.20;9.50;;;;;;;;;;4918157;29;20051;-80
2022/01/14 13:48:28;;;;;;;43.70;9.57;;;;;;;;;;4916180;29;20043;-81
2022/01/14 13:51:07;;;;;;;44.20;8.73;;;;;;;;;;4932685;29;20097;-81
2022/01/14 13:53:38;;;;;;;35.10;8.82;;;;;;;;;;4914158;29;20053;-78
2022/01/14 13:56:10;;;;;;;47.30;8.93;;;;;;;;;;4921077;29;20511;-76
2022/01/14 13:58:37;;;;;;;46.78;9.57;;;;;;;;;;4932420;29;20703;-78
2022/01/14 14:01:04;;;;;;;45.70;8.75;;;;;;;;;;4934686;29;20126;-79
2022/01/14 14:03:38;;;;;;;36.83;9.98;;;;;;;;;;4891845;29;20059;-79
2022/01/14 14:06:18;;;;;;;50.22;9.60;;;;;;;;;;4931795;29;20483;-77
2022/01/14 14:16:54;;;;;;;51.60;11.15;;;;;;;;;;4923365;29;20063;-78
2022/01/14 14:19:20;;;;;;;41.83;11.10;;;;;;;;;;4935343;29;20070;-78
2022/01/14 14:22:04;;;;;;;53.03;11.30;;;;;;;;;;4935710;29;20435;-77
2022/01/14 14:24:30;;;;;;;48.55;12.60;;;;;;;;;;4916093;29;20502;-77
2022/01/14 14:27:08;;;;;;;48.97;12.55;;;;;;;;;;4953064;29;20050;-77
2022/01/14 14:29:34;;;;;;;48.33;14.23;;;;;;;;;;4919525;29;20134;-77
2022/01/14 14:32:14;;;;;;;45.15;12.35;;;;;;;;;;4920819;29;20047;-79
2022/01/14 14:34:40;;;;;;;55.95;14.63;;;;;;;;;;4908478;29;20551;-77
2022/01/14 14:37:06;;;;;;;53.15;12.23;;;;;;;;;;4916634;29;20047;-77
2022/01/14 14:39:33;;;;;;;63.72;14.20;;;;;;;;;;4899226;29;20055;-75
2022/01/14 14:42:00;;;;;;;59.80;12.77;;;;;;;;;;4935588;29;20054;-76
2022/01/14 14:44:26;;;;;;;68.65;13.25;;;;;;;;;;4921764;29;20047;-75
2022/01/14 14:46:52;;;;;;;46.22;12.20;;;;;;;;;;4919630;29;20047;-76
2022/01/14 14:49:18;;;;;;;50.67;11.55;;;;;;;;;;4929486;29;20051;-79
2022/01/14 14:51:45;;;;;;;70.70;13.20;;;;;;;;;;4933212;29;20134;-78
2022/01/14 14:54:11;;;;;;;50.85;12.63;;;;;;;;;;4905846;29;20123;-76
2022/01/14 14:56:37;;;;;;;64.03;14.30;;;;;;;;;;4934609;29;20611;-74
2022/01/14 14:59:03;;;;;;;44.92;10.95;;;;;;;;;;4921559;29;20399;-76
2022/01/14 15:01:29;;;;;;;59.95;13.35;;;;;;;;;;4929821;29;20055;-77
2022/01/14 15:03:55;;;;;;;59.30;13.48;;;;;;;;;;4916669;29;20047;-79